sensor_id;sensor_type;location;lat;lon;timestamp;P1;durP1;ratioP1;P2;durP2;ratioP2
29662;SDS011;16578;53.266;7.920;2023-04-24T00:01:27;4.13;;;3.72;;
29662;SDS011;16578;53.266;7.920;2023-04-24T00:03:54;4.75;;;4.18;;
29662;SDS011;16578;53.266;7.920;2023-04-24T00:06:24;3.35;;;3.05;;
29662;SDS011;16578;53.266;7.920;2023-04-24T00:08:58;2.30;;;2.10;;
29662;SDS011;16578;53.266;7.920;2023-04-24T00:11:28;1.80;;;1.70;;
29662;SDS011;16578;53.266;7.920;2023-04-24T00:13:54;1.27;;;1.17;;
29662;SDS011;16578;53.266;7.920;2023-04-24T00:16:19;0.90;;;0.90;;
29662;SDS011;16578;53.266;7.920;2023-04-24T00:18:45;0.70;;;0.70;;
29662;SDS011;16578;53.266;7.920;2023-04-24T00:21:12;0.60;;;0.60;;
29662;SDS011;16578;53.266;7.920;2023-04-24T00:23:38;0.88;;;0.43;;
29662;SDS011;16578;53.266;7.920;2023-04-24T00:26:04;0.55;;;0.55;;
29662;SDS011;16578;53.266;7.920;2023-04-24T00:28:30;0.30;;;0.30;;
29662;SDS011;16578;53.266;7.920;2023-04-24T00:30:55;0.40;;;0.40;;
29662;SDS011;16578;53.266;7.920;2023-04-24T00:33:21;0.47;;;0.47;;
29662;SDS011;16578;53.266;7.920;2023-04-24T00:35:46;0.40;;;0.40;;
29662;SDS011;16578;53.266;7.920;2023-04-24T00:38:12;0.35;;;0.35;;
29662;SDS011;16578;53.266;7.920;2023-04-24T00:40:37;0.98;;;0.60;;
29662;SDS011;16578;53.266;7.920;2023-04-24T00:43:03;0.47;;;0.47;;
29662;SDS011;16578;53.266;7.920;2023-04-24T00:45:29;0.68;;;0.40;;
29662;SDS011;16578;53.266;7.920;2023-04-24T00:47:56;0.50;;;0.50;;
29662;SDS011;16578;53.266;7.920;2023-04-24T00:50:21;1.25;;;0.70;;
29662;SDS011;16578;53.266;7.920;2023-04-24T00:52:48;0.50;;;0.50;;
29662;SDS011;16578;53.266;7.920;2023-04-24T00:55:14;0.60;;;0.60;;
29662;SDS011;16578;53.266;7.920;2023-04-24T00:57:40;0.80;;;0.80;;
29662;SDS011;16578;53.266;7.920;2023-04-24T01:00:06;0.80;;;0.60;;
29662;SDS011;16578;53.266;7.920;2023-04-24T01:02:35;0.90;;;0.60;;
29662;SDS011;16578;53.266;7.920;2023-04-24T01:05:01;0.50;;;0.50;;
29662;SDS011;16578;53.266;7.920;2023-04-24T01:07:28;0.60;;;0.60;;
29662;SDS011;16578;53.266;7.920;2023-04-24T01:09:54;0.60;;;0.60;;
29662;SDS011;16578;53.266;7.920;2023-04-24T01:12:19;1.88;;;0.80;;
29662;SDS011;16578;53.266;7.920;2023-04-24T01:14:45;0.65;;;0.65;;
29662;SDS011;16578;53.266;7.920;2023-04-24T01:17:11;0.80;;;0.80;;
29662;SDS011;16578;53.266;7.920;2023-04-24T01:19:36;0.80;;;0.80;;
29662;SDS011;16578;53.266;7.920;2023-04-24T01:22:02;0.90;;;0.90;;
29662;SDS011;16578;53.266;7.920;2023-04-24T01:24:33;1.50;;;0.90;;
29662;SDS011;16578;53.266;7.920;2023-04-24T01:26:58;1.00;;;1.00;;
29662;SDS011;16578;53.266;7.920;2023-04-24T01:29:24;1.00;;;1.00;;
29662;SDS011;16578;53.266;7.920;2023-04-24T01:31:49;0.93;;;0.93;;
29662;SDS011;16578;53.266;7.920;2023-04-24T01:34:15;1.05;;;1.05;;
29662;SDS011;16578;53.266;7.920;2023-04-24T01:36:42;1.20;;;1.10;;
29662;SDS011;16578;53.266;7.920;2023-04-24T01:39:10;2.67;;;1.17;;
29662;SDS011;16578;53.266;7.920;2023-04-24T01:41:36;1.42;;;1.27;;
29662;SDS011;16578;53.266;7.920;2023-04-24T01:44:02;1.33;;;1.27;;
29662;SDS011;16578;53.266;7.920;2023-04-24T01:46:27;1.40;;;1.30;;
29662;SDS011;16578;53.266;7.920;2023-04-24T01:48:53;1.70;;;1.60;;
29662;SDS011;16578;53.266;7.920;2023-04-24T01:51:19;2.05;;;1.58;;
29662;SDS011;16578;53.266;7.920;2023-04-24T01:53:45;1.65;;;1.55;;
29662;SDS011;16578;53.266;7.920;2023-04-24T01:56:10;1.90;;;1.80;;
29662;SDS011;16578;53.266;7.920;2023-04-24T01:58:36;1.90;;;1.80;;
29662;SDS011;16578;53.266;7.920;2023-04-24T02:01:02;2.38;;;2.13;;
29662;SDS011;16578;53.266;7.920;2023-04-24T02:03:27;1.90;;;1.80;;
29662;SDS011;16578;53.266;7.920;2023-04-24T02:05:53;2.28;;;2.00;;
29662;SDS011;16578;53.266;7.920;2023-04-24T02:08:18;2.13;;;1.95;;
29662;SDS011;16578;53.266;7.920;2023-04-24T02:10:44;2.47;;;2.28;;
29662;SDS011;16578;53.266;7.920;2023-04-24T02:13:10;3.42;;;2.30;;
29662;SDS011;16578;53.266;7.920;2023-04-24T02:15:35;3.00;;;2.30;;
29662;SDS011;16578;53.266;7.920;2023-04-24T02:18:01;2.75;;;2.55;;
29662;SDS011;16578;53.266;7.920;2023-04-24T02:20:27;3.10;;;2.90;;
29662;SDS011;16578;53.266;7.920;2023-04-24T02:22:52;3.95;;;2.95;;
29662;SDS011;16578;53.266;7.920;2023-04-24T02:25:18;2.80;;;2.60;;
29662;SDS011;16578;53.266;7.920;2023-04-24T02:27:43;3.55;;;3.20;;
29662;SDS011;16578;53.266;7.920;2023-04-24T02:30:09;3.72;;;3.30;;
29662;SDS011;16578;53.266;7.920;2023-04-24T02:32:35;2.78;;;2.50;;
29662;SDS011;16578;53.266;7.920;2023-04-24T02:35:01;3.50;;;3.00;;
29662;SDS011;16578;53.266;7.920;2023-04-24T02:37:26;3.20;;;2.90;;
29662;SDS011;16578;53.266;7.920;2023-04-24T02:39:52;3.50;;;3.20;;
29662;SDS011;16578;53.266;7.920;2023-04-24T02:42:17;3.38;;;3.08;;
29662;SDS011;16578;53.266;7.920;2023-04-24T02:44:43;4.18;;;3.47;;
29662;SDS011;16578;53.266;7.920;2023-04-24T02:47:08;3.47;;;3.17;;
29662;SDS011;16578;53.266;7.920;2023-04-24T02:49:34;3.60;;;3.30;;
29662;SDS011;16578;53.266;7.920;2023-04-24T02:51:59;3.60;;;3.30;;
29662;SDS011;16578;53.266;7.920;2023-04-24T02:54:25;3.97;;;3.67;;
29662;SDS011;16578;53.266;7.920;2023-04-24T02:56:50;3.67;;;3.38;;
29662;SDS011;16578;53.266;7.920;2023-04-24T02:59:16;4.60;;;3.85;;
29662;SDS011;16578;53.266;7.920;2023-04-24T03:01:41;4.60;;;4.00;;
29662;SDS011;16578;53.266;7.920;2023-04-24T03:04:07;4.47;;;4.07;;
29662;SDS011;16578;53.266;7.920;2023-04-24T03:06:33;4.43;;;4.03;;
29662;SDS011;16578;53.266;7.920;2023-04-24T03:09:00;4.20;;;3.78;;
29662;SDS011;16578;53.266;7.920;2023-04-24T03:11:26;4.25;;;3.85;;
29662;SDS011;16578;53.266;7.920;2023-04-24T03:13:51;4.40;;;4.00;;
29662;SDS011;16578;53.266;7.920;2023-04-24T03:16:17;5.13;;;4.05;;
29662;SDS011;16578;53.266;7.920;2023-04-24T03:18:42;4.10;;;3.72;;
29662;SDS011;16578;53.266;7.920;2023-04-24T03:21:08;4.40;;;3.97;;
29662;SDS011;16578;53.266;7.920;2023-04-24T03:23:34;4.22;;;3.83;;
29662;SDS011;16578;53.266;7.920;2023-04-24T03:25:59;5.03;;;4.53;;
29662;SDS011;16578;53.266;7.920;2023-04-24T03:28:25;4.38;;;3.97;;
29662;SDS011;16578;53.266;7.920;2023-04-24T03:30:51;4.55;;;4.15;;
29662;SDS011;16578;53.266;7.920;2023-04-24T03:33:17;4.53;;;4.13;;
29662;SDS011;16578;53.266;7.920;2023-04-24T03:35:42;4.30;;;3.90;;
29662;SDS011;16578;53.266;7.920;2023-04-24T03:38:08;5.25;;;4.22;;
29662;SDS011;16578;53.266;7.920;2023-04-24T03:40:33;5.70;;;4.45;;
29662;SDS011;16578;53.266;7.920;2023-04-24T03:42:59;4.57;;;4.18;;
29662;SDS011;16578;53.266;7.920;2023-04-24T03:45:25;4.85;;;4.35;;
29662;SDS011;16578;53.266;7.920;2023-04-24T03:47:50;4.35;;;3.95;;
29662;SDS011;16578;53.266;7.920;2023-04-24T03:50:16;4.50;;;3.88;;
29662;SDS011;16578;53.266;7.920;2023-04-24T03:52:41;4.95;;;4.45;;
29662;SDS011;16578;53.266;7.920;2023-04-24T03:55:07;6.30;;;4.65;;
29662;SDS011;16578;53.266;7.920;2023-04-24T03:57:33;5.10;;;4.60;;
29662;SDS011;16578;53.266;7.920;2023-04-24T03:59:58;5.55;;;4.88;;
29662;SDS011;16578;53.266;7.920;2023-04-24T04:02:24;5.57;;;4.88;;
29662;SDS011;16578;53.266;7.920;2023-04-24T04:04:50;7.20;;;5.05;;
29662;SDS011;16578;53.266;7.920;2023-04-24T04:07:15;5.22;;;4.72;;
29662;SDS011;16578;53.266;7.920;2023-04-24T04:09:41;5.72;;;5.20;;
29662;SDS011;16578;53.266;7.920;2023-04-24T04:12:07;5.93;;;5.32;;
29662;SDS011;16578;53.266;7.920;2023-04-24T04:14:32;6.53;;;5.40;;
29662;SDS011;16578;53.266;7.920;2023-04-24T04:16:58;5.63;;;5.13;;
29662;SDS011;16578;53.266;7.920;2023-04-24T04:19:23;6.07;;;5.47;;
29662;SDS011;16578;53.266;7.920;2023-04-24T04:21:49;6.32;;;5.75;;
29662;SDS011;16578;53.266;7.920;2023-04-24T04:24:21;6.63;;;6.03;;
29662;SDS011;16578;53.266;7.920;2023-04-24T04:26:47;7.60;;;6.90;;
29662;SDS011;16578;53.266;7.920;2023-04-24T04:29:16;7.25;;;6.55;;
29662;SDS011;16578;53.266;7.920;2023-04-24T04:31:42;7.18;;;6.47;;
29662;SDS011;16578;53.266;7.920;2023-04-24T04:34:08;6.70;;;6.13;;
29662;SDS011;16578;53.266;7.920;2023-04-24T04:36:34;6.07;;;5.35;;
29662;SDS011;16578;53.266;7.920;2023-04-24T04:39:01;6.32;;;5.72;;
29662;SDS011;16578;53.266;7.920;2023-04-24T04:41:28;6.50;;;5.85;;
29662;SDS011;16578;53.266;7.920;2023-04-24T04:43:53;5.70;;;5.20;;
29662;SDS011;16578;53.266;7.920;2023-04-24T04:46:19;6.72;;;6.00;;
29662;SDS011;16578;53.266;7.920;2023-04-24T04:48:45;6.30;;;5.35;;
29662;SDS011;16578;53.266;7.920;2023-04-24T04:51:10;5.80;;;5.18;;
29662;SDS011;16578;53.266;7.920;2023-04-24T04:53:36;6.03;;;5.43;;
29662;SDS011;16578;53.266;7.920;2023-04-24T04:56:02;6.47;;;5.45;;
29662;SDS011;16578;53.266;7.920;2023-04-24T04:58:28;6.05;;;4.90;;
29662;SDS011;16578;53.266;7.920;2023-04-24T05:00:53;5.43;;;4.93;;
29662;SDS011;16578;53.266;7.920;2023-04-24T05:03:19;6.20;;;5.60;;
29662;SDS011;16578;53.266;7.920;2023-04-24T05:05:44;5.80;;;5.20;;
29662;SDS011;16578;53.266;7.920;2023-04-24T05:08:10;5.38;;;4.88;;
29662;SDS011;16578;53.266;7.920;2023-04-24T05:10:35;6.30;;;5.70;;
29662;SDS011;16578;53.266;7.920;2023-04-24T05:13:02;4.82;;;4.35;;
29662;SDS011;16578;53.266;7.920;2023-04-24T05:15:28;5.95;;;4.97;;
29662;SDS011;16578;53.266;7.920;2023-04-24T05:17:55;5.45;;;4.95;;
29662;SDS011;16578;53.266;7.920;2023-04-24T05:20:20;4.82;;;4.43;;
29662;SDS011;16578;53.266;7.920;2023-04-24T05:22:46;5.32;;;4.82;;
29662;SDS011;16578;53.266;7.920;2023-04-24T05:25:11;5.53;;;4.93;;
29662;SDS011;16578;53.266;7.920;2023-04-24T05:27:37;5.90;;;5.30;;
29662;SDS011;16578;53.266;7.920;2023-04-24T05:30:03;5.97;;;5.38;;
29662;SDS011;16578;53.266;7.920;2023-04-24T05:32:29;8.10;;;5.72;;
29662;SDS011;16578;53.266;7.920;2023-04-24T05:34:55;6.43;;;5.82;;
29662;SDS011;16578;53.266;7.920;2023-04-24T05:37:21;5.72;;;5.22;;
29662;SDS011;16578;53.266;7.920;2023-04-24T05:39:46;4.57;;;4.18;;
29662;SDS011;16578;53.266;7.920;2023-04-24T05:42:12;5.13;;;4.63;;
29662;SDS011;16578;53.266;7.920;2023-04-24T05:44:37;5.40;;;4.18;;
29662;SDS011;16578;53.266;7.920;2023-04-24T05:47:03;5.45;;;4.88;;
29662;SDS011;16578;53.266;7.920;2023-04-24T05:49:28;5.28;;;4.78;;
29662;SDS011;16578;53.266;7.920;2023-04-24T05:51:54;5.30;;;4.80;;
29662;SDS011;16578;53.266;7.920;2023-04-24T05:54:19;6.28;;;5.20;;
29662;SDS011;16578;53.266;7.920;2023-04-24T05:56:45;5.28;;;4.60;;
29662;SDS011;16578;53.266;7.920;2023-04-24T05:59:11;5.88;;;5.30;;
29662;SDS011;16578;53.266;7.920;2023-04-24T06:01:37;7.28;;;6.57;;
29662;SDS011;16578;53.266;7.920;2023-04-24T06:04:03;5.72;;;5.10;;
29662;SDS011;16578;53.266;7.920;2023-04-24T06:06:28;7.63;;;6.80;;
29662;SDS011;16578;53.266;7.920;2023-04-24T06:08:54;5.78;;;5.18;;
29662;SDS011;16578;53.266;7.920;2023-04-24T06:11:20;6.18;;;5.63;;
29662;SDS011;16578;53.266;7.920;2023-04-24T06:13:46;8.93;;;6.53;;
29662;SDS011;16578;53.266;7.920;2023-04-24T06:16:11;6.85;;;6.18;;
29662;SDS011;16578;53.266;7.920;2023-04-24T06:18:37;5.55;;;5.05;;
29662;SDS011;16578;53.266;7.920;2023-04-24T06:21:03;4.70;;;4.30;;
29662;SDS011;16578;53.266;7.920;2023-04-24T06:23:30;5.22;;;4.72;;
29662;SDS011;16578;53.266;7.920;2023-04-24T06:25:57;4.90;;;4.40;;
29662;SDS011;16578;53.266;7.920;2023-04-24T06:28:23;4.55;;;4.15;;
29662;SDS011;16578;53.266;7.920;2023-04-24T06:30:48;4.47;;;4.07;;
29662;SDS011;16578;53.266;7.920;2023-04-24T06:33:15;4.45;;;4.05;;
29662;SDS011;16578;53.266;7.920;2023-04-24T06:35:41;3.90;;;3.60;;
29662;SDS011;16578;53.266;7.920;2023-04-24T06:38:07;4.50;;;4.10;;
29662;SDS011;16578;53.266;7.920;2023-04-24T06:40:33;4.03;;;3.60;;
29662;SDS011;16578;53.266;7.920;2023-04-24T06:42:58;4.32;;;3.92;;
29662;SDS011;16578;53.266;7.920;2023-04-24T06:45:25;4.72;;;4.20;;
29662;SDS011;16578;53.266;7.920;2023-04-24T06:47:50;5.70;;;5.07;;
29662;SDS011;16578;53.266;7.920;2023-04-24T06:50:16;5.88;;;5.38;;
29662;SDS011;16578;53.266;7.920;2023-04-24T06:52:42;5.38;;;4.88;;
29662;SDS011;16578;53.266;7.920;2023-04-24T06:55:09;5.45;;;5.05;;
29662;SDS011;16578;53.266;7.920;2023-04-24T06:57:36;6.18;;;5.63;;
29662;SDS011;16578;53.266;7.920;2023-04-24T07:00:02;6.75;;;5.90;;
29662;SDS011;16578;53.266;7.920;2023-04-24T07:02:28;5.32;;;4.82;;
29662;SDS011;16578;53.266;7.920;2023-04-24T07:04:54;7.60;;;5.55;;
29662;SDS011;16578;53.266;7.920;2023-04-24T07:07:19;4.63;;;4.22;;
29662;SDS011;16578;53.266;7.920;2023-04-24T07:09:45;5.45;;;4.95;;
29662;SDS011;16578;53.266;7.920;2023-04-24T07:12:11;6.40;;;4.80;;
29662;SDS011;16578;53.266;7.920;2023-04-24T07:14:37;5.43;;;4.93;;
29662;SDS011;16578;53.266;7.920;2023-04-24T07:17:03;5.72;;;5.13;;
29662;SDS011;16578;53.266;7.920;2023-04-24T07:19:30;4.45;;;4.05;;
29662;SDS011;16578;53.266;7.920;2023-04-24T07:21:56;5.15;;;4.57;;
29662;SDS011;16578;53.266;7.920;2023-04-24T07:24:23;4.65;;;4.18;;
29662;SDS011;16578;53.266;7.920;2023-04-24T07:26:50;5.13;;;4.72;;
29662;SDS011;16578;53.266;7.920;2023-04-24T07:29:17;5.05;;;4.03;;
29662;SDS011;16578;53.266;7.920;2023-04-24T07:31:42;5.20;;;4.70;;
29662;SDS011;16578;53.266;7.920;2023-04-24T07:34:08;4.60;;;4.18;;
29662;SDS011;16578;53.266;7.920;2023-04-24T07:36:34;6.82;;;5.47;;
29662;SDS011;16578;53.266;7.920;2023-04-24T07:39:00;5.40;;;4.90;;
29662;SDS011;16578;53.266;7.920;2023-04-24T07:41:26;6.18;;;4.75;;
29662;SDS011;16578;53.266;7.920;2023-04-24T07:43:52;5.07;;;4.40;;
29662;SDS011;16578;53.266;7.920;2023-04-24T07:46:18;4.75;;;4.00;;
29662;SDS011;16578;53.266;7.920;2023-04-24T07:48:45;5.20;;;4.80;;
29662;SDS011;16578;53.266;7.920;2023-04-24T07:51:12;3.92;;;3.53;;
29662;SDS011;16578;53.266;7.920;2023-04-24T07:53:39;4.65;;;4.25;;
29662;SDS011;16578;53.266;7.920;2023-04-24T07:56:04;4.95;;;4.55;;
29662;SDS011;16578;53.266;7.920;2023-04-24T07:58:30;5.00;;;4.60;;
29662;SDS011;16578;53.266;7.920;2023-04-24T08:00:55;5.40;;;4.90;;
29662;SDS011;16578;53.266;7.920;2023-04-24T08:03:21;5.60;;;5.00;;
29662;SDS011;16578;53.266;7.920;2023-04-24T08:05:47;5.68;;;5.07;;
29662;SDS011;16578;53.266;7.920;2023-04-24T08:08:12;5.70;;;5.18;;
29662;SDS011;16578;53.266;7.920;2023-04-24T08:10:38;5.32;;;4.82;;
29662;SDS011;16578;53.266;7.920;2023-04-24T08:13:04;6.25;;;5.32;;
29662;SDS011;16578;53.266;7.920;2023-04-24T08:15:30;7.28;;;5.80;;
29662;SDS011;16578;53.266;7.920;2023-04-24T08:17:56;5.72;;;5.22;;
29662;SDS011;16578;53.266;7.920;2023-04-24T08:20:22;6.95;;;5.60;;
29662;SDS011;16578;53.266;7.920;2023-04-24T08:22:48;6.90;;;6.20;;
29662;SDS011;16578;53.266;7.920;2023-04-24T08:25:13;6.68;;;6.07;;
29662;SDS011;16578;53.266;7.920;2023-04-24T08:27:39;6.53;;;5.53;;
29662;SDS011;16578;53.266;7.920;2023-04-24T08:30:05;5.35;;;4.85;;
29662;SDS011;16578;53.266;7.920;2023-04-24T08:32:31;6.25;;;5.65;;
29662;SDS011;16578;53.266;7.920;2023-04-24T08:34:57;6.57;;;4.97;;
29662;SDS011;16578;53.266;7.920;2023-04-24T08:37:24;5.30;;;4.80;;
29662;SDS011;16578;53.266;7.920;2023-04-24T08:39:50;5.55;;;4.93;;
29662;SDS011;16578;53.266;7.920;2023-04-24T08:42:19;5.63;;;5.00;;
29662;SDS011;16578;53.266;7.920;2023-04-24T08:44:46;6.13;;;5.57;;
29662;SDS011;16578;53.266;7.920;2023-04-24T08:47:13;6.55;;;5.90;;
29662;SDS011;16578;53.266;7.920;2023-04-24T08:49:40;6.40;;;5.80;;
29662;SDS011;16578;53.266;7.920;2023-04-24T08:52:05;6.30;;;5.70;;
29662;SDS011;16578;53.266;7.920;2023-04-24T08:54:31;5.35;;;4.85;;
29662;SDS011;16578;53.266;7.920;2023-04-24T08:56:59;6.10;;;5.43;;
29662;SDS011;16578;53.266;7.920;2023-04-24T08:59:27;5.05;;;4.55;;
29662;SDS011;16578;53.266;7.920;2023-04-24T09:01:53;5.18;;;4.78;;
29662;SDS011;16578;53.266;7.920;2023-04-24T09:04:20;5.18;;;4.55;;
29662;SDS011;16578;53.266;7.920;2023-04-24T09:09:16;4.47;;;4.07;;
29662;SDS011;16578;53.266;7.920;2023-04-24T09:11:42;4.30;;;3.97;;
29662;SDS011;16578;53.266;7.920;2023-04-24T09:14:09;5.00;;;4.50;;
29662;SDS011;16578;53.266;7.920;2023-04-24T09:16:35;5.20;;;4.50;;
29662;SDS011;16578;53.266;7.920;2023-04-24T09:19:01;5.53;;;4.30;;
29662;SDS011;16578;53.266;7.920;2023-04-24T09:21:31;6.05;;;4.47;;
29662;SDS011;16578;53.266;7.920;2023-04-24T09:24:03;4.95;;;4.45;;
29662;SDS011;16578;53.266;7.920;2023-04-24T09:26:33;5.82;;;5.13;;
29662;SDS011;16578;53.266;7.920;2023-04-24T09:29:00;5.07;;;4.15;;
29662;SDS011;16578;53.266;7.920;2023-04-24T09:31:27;4.60;;;4.10;;
29662;SDS011;16578;53.266;7.920;2023-04-24T09:34:02;5.90;;;5.40;;
29662;SDS011;16578;53.266;7.920;2023-04-24T09:36:34;5.45;;;4.15;;
29662;SDS011;16578;53.266;7.920;2023-04-24T09:39:04;4.80;;;4.40;;
29662;SDS011;16578;53.266;7.920;2023-04-24T09:41:33;5.80;;;5.20;;
29662;SDS011;16578;53.266;7.920;2023-04-24T09:44:10;5.65;;;5.05;;
29662;SDS011;16578;53.266;7.920;2023-04-24T09:46:38;5.72;;;5.13;;
29662;SDS011;16578;53.266;7.920;2023-04-24T09:49:10;5.13;;;4.63;;
29662;SDS011;16578;53.266;7.920;2023-04-24T09:51:37;5.00;;;4.50;;
29662;SDS011;16578;53.266;7.920;2023-04-24T09:54:04;5.90;;;5.30;;
29662;SDS011;16578;53.266;7.920;2023-04-24T09:56:37;5.55;;;4.97;;
29662;SDS011;16578;53.266;7.920;2023-04-24T09:59:08;5.20;;;4.70;;
29662;SDS011;16578;53.266;7.920;2023-04-24T10:01:34;6.40;;;5.80;;
29662;SDS011;16578;53.266;7.920;2023-04-24T10:04:00;6.28;;;5.68;;
29662;SDS011;16578;53.266;7.920;2023-04-24T10:06:35;6.78;;;6.15;;
29662;SDS011;16578;53.266;7.920;2023-04-24T10:09:01;6.57;;;5.88;;
29662;SDS011;16578;53.266;7.920;2023-04-24T10:11:28;6.00;;;5.43;;
29662;SDS011;16578;53.266;7.920;2023-04-24T10:13:55;5.93;;;5.32;;
29662;SDS011;16578;53.266;7.920;2023-04-24T10:16:22;6.03;;;5.43;;
29662;SDS011;16578;53.266;7.920;2023-04-24T10:18:48;5.43;;;4.93;;
29662;SDS011;16578;53.266;7.920;2023-04-24T10:21:14;4.97;;;4.50;;
29662;SDS011;16578;53.266;7.920;2023-04-24T10:23:41;5.25;;;4.78;;
29662;SDS011;16578;53.266;7.920;2023-04-24T10:26:08;6.00;;;4.57;;
29662;SDS011;16578;53.266;7.920;2023-04-24T10:28:36;5.20;;;4.70;;
29662;SDS011;16578;53.266;7.920;2023-04-24T10:31:02;5.55;;;5.05;;
29662;SDS011;16578;53.266;7.920;2023-04-24T10:33:27;5.53;;;4.80;;
29662;SDS011;16578;53.266;7.920;2023-04-24T10:35:55;5.73;;;5.23;;
29662;SDS011;16578;53.266;7.920;2023-04-24T10:38:24;5.60;;;5.03;;
29662;SDS011;16578;53.266;7.920;2023-04-24T10:40:51;4.28;;;3.92;;
29662;SDS011;16578;53.266;7.920;2023-04-24T10:43:31;5.38;;;4.05;;
29662;SDS011;16578;53.266;7.920;2023-04-24T10:46:02;3.40;;;3.10;;
29662;SDS011;16578;53.266;7.920;2023-04-24T10:48:29;2.78;;;2.25;;
29662;SDS011;16578;53.266;7.920;2023-04-24T10:50:55;2.50;;;2.30;;
29662;SDS011;16578;53.266;7.920;2023-04-24T10:53:25;2.92;;;2.35;;
29662;SDS011;16578;53.266;7.920;2023-04-24T10:56:02;2.50;;;2.03;;
29662;SDS011;16578;53.266;7.920;2023-04-24T10:58:41;2.30;;;1.58;;
29662;SDS011;16578;53.266;7.920;2023-04-24T11:01:22;1.48;;;1.27;;
29662;SDS011;16578;53.266;7.920;2023-04-24T11:04:01;2.47;;;1.38;;
29662;SDS011;16578;53.266;7.920;2023-04-24T11:06:29;3.10;;;1.70;;
29662;SDS011;16578;53.266;7.920;2023-04-24T11:11:33;4.05;;;1.75;;
29662;SDS011;16578;53.266;7.920;2023-04-24T11:21:46;2.28;;;1.70;;
29662;SDS011;16578;53.266;7.920;2023-04-24T11:24:25;4.13;;;2.85;;
29662;SDS011;16578;53.266;7.920;2023-04-24T11:34:50;7.30;;;5.55;;
29662;SDS011;16578;53.266;7.920;2023-04-24T11:37:17;11.60;;;8.45;;
29662;SDS011;16578;53.266;7.920;2023-04-24T11:39:43;10.80;;;8.52;;
29662;SDS011;16578;53.266;7.920;2023-04-24T11:42:09;11.25;;;7.68;;
29662;SDS011;16578;53.266;7.920;2023-04-24T11:44:35;10.93;;;7.78;;
29662;SDS011;16578;53.266;7.920;2023-04-24T11:47:04;9.82;;;7.30;;
29662;SDS011;16578;53.266;7.920;2023-04-24T11:49:30;11.57;;;7.43;;
29662;SDS011;16578;53.266;7.920;2023-04-24T11:51:56;9.32;;;8.13;;
29662;SDS011;16578;53.266;7.920;2023-04-24T11:54:21;10.85;;;8.05;;
29662;SDS011;16578;53.266;7.920;2023-04-24T11:56:47;11.75;;;7.97;;
29662;SDS011;16578;53.266;7.920;2023-04-24T11:59:14;12.60;;;8.27;;
29662;SDS011;16578;53.266;7.920;2023-04-24T12:01:43;11.07;;;8.20;;
29662;SDS011;16578;53.266;7.920;2023-04-24T12:04:10;11.70;;;8.20;;
29662;SDS011;16578;53.266;7.920;2023-04-24T12:06:36;9.40;;;7.88;;
29662;SDS011;16578;53.266;7.920;2023-04-24T12:09:02;12.18;;;7.60;;
29662;SDS011;16578;53.266;7.920;2023-04-24T12:11:27;12.25;;;7.78;;
29662;SDS011;16578;53.266;7.920;2023-04-24T12:13:53;9.68;;;7.05;;
29662;SDS011;16578;53.266;7.920;2023-04-24T12:16:18;13.45;;;8.18;;
29662;SDS011;16578;53.266;7.920;2023-04-24T12:18:44;10.73;;;7.38;;
29662;SDS011;16578;53.266;7.920;2023-04-24T12:21:29;9.90;;;7.03;;
29662;SDS011;16578;53.266;7.920;2023-04-24T12:23:56;10.20;;;6.78;;
29662;SDS011;16578;53.266;7.920;2023-04-24T12:26:22;9.10;;;6.15;;
29662;SDS011;16578;53.266;7.920;2023-04-24T12:28:49;11.40;;;5.93;;
29662;SDS011;16578;53.266;7.920;2023-04-24T12:31:15;9.32;;;5.90;;
29662;SDS011;16578;53.266;7.920;2023-04-24T12:33:41;7.88;;;4.85;;
29662;SDS011;16578;53.266;7.920;2023-04-24T12:36:10;11.55;;;5.72;;
29662;SDS011;16578;53.266;7.920;2023-04-24T12:38:37;10.25;;;6.00;;
29662;SDS011;16578;53.266;7.920;2023-04-24T12:41:07;6.18;;;4.85;;
29662;SDS011;16578;53.266;7.920;2023-04-24T12:43:34;11.30;;;5.20;;
29662;SDS011;16578;53.266;7.920;2023-04-24T12:46:00;10.25;;;5.25;;
29662;SDS011;16578;53.266;7.920;2023-04-24T12:48:26;9.57;;;5.53;;
29662;SDS011;16578;53.266;7.920;2023-04-24T12:50:53;9.20;;;5.80;;
29662;SDS011;16578;53.266;7.920;2023-04-24T12:53:20;8.93;;;5.40;;
29662;SDS011;16578;53.266;7.920;2023-04-24T12:55:46;10.63;;;5.68;;
29662;SDS011;16578;53.266;7.920;2023-04-24T12:58:17;9.02;;;5.05;;
29662;SDS011;16578;53.266;7.920;2023-04-24T13:03:12;10.23;;;5.53;;
29662;SDS011;16578;53.266;7.920;2023-04-24T13:05:37;11.55;;;5.50;;
29662;SDS011;16578;53.266;7.920;2023-04-24T13:08:03;13.60;;;5.90;;
29662;SDS011;16578;53.266;7.920;2023-04-24T13:10:29;10.88;;;5.55;;
29662;SDS011;16578;53.266;7.920;2023-04-24T13:12:55;5.97;;;4.82;;
29662;SDS011;16578;53.266;7.920;2023-04-24T13:15:20;7.00;;;5.55;;
29662;SDS011;16578;53.266;7.920;2023-04-24T13:17:46;10.60;;;5.43;;
29662;SDS011;16578;53.266;7.920;2023-04-24T13:20:11;10.60;;;4.95;;
29662;SDS011;16578;53.266;7.920;2023-04-24T13:22:37;10.32;;;5.22;;
29662;SDS011;16578;53.266;7.920;2023-04-24T13:25:02;8.50;;;4.18;;
29662;SDS011;16578;53.266;7.920;2023-04-24T13:27:30;9.38;;;4.80;;
29662;SDS011;16578;53.266;7.920;2023-04-24T13:29:56;11.55;;;4.75;;
29662;SDS011;16578;53.266;7.920;2023-04-24T13:32:22;11.52;;;6.13;;
29662;SDS011;16578;53.266;7.920;2023-04-24T13:34:47;13.10;;;6.05;;
29662;SDS011;16578;53.266;7.920;2023-04-24T13:37:13;9.25;;;5.03;;
29662;SDS011;16578;53.266;7.920;2023-04-24T13:39:38;9.95;;;4.80;;
29662;SDS011;16578;53.266;7.920;2023-04-24T13:42:06;11.88;;;4.43;;
29662;SDS011;16578;53.266;7.920;2023-04-24T13:44:31;9.25;;;3.65;;
29662;SDS011;16578;53.266;7.920;2023-04-24T13:46:57;11.57;;;3.85;;
29662;SDS011;16578;53.266;7.920;2023-04-24T13:49:24;9.95;;;4.28;;
29662;SDS011;16578;53.266;7.920;2023-04-24T13:51:50;7.75;;;4.22;;
29662;SDS011;16578;53.266;7.920;2023-04-24T13:54:16;8.02;;;3.75;;
29662;SDS011;16578;53.266;7.920;2023-04-24T13:56:42;8.13;;;4.10;;
29662;SDS011;16578;53.266;7.920;2023-04-24T13:59:07;11.13;;;3.45;;
29662;SDS011;16578;53.266;7.920;2023-04-24T14:01:33;8.43;;;3.78;;
29662;SDS011;16578;53.266;7.920;2023-04-24T14:03:59;8.05;;;3.97;;
29662;SDS011;16578;53.266;7.920;2023-04-24T14:06:25;8.45;;;4.22;;
29662;SDS011;16578;53.266;7.920;2023-04-24T14:08:50;7.03;;;3.55;;
29662;SDS011;16578;53.266;7.920;2023-04-24T14:11:16;5.32;;;3.20;;
29662;SDS011;16578;53.266;7.920;2023-04-24T14:13:43;7.00;;;3.45;;
29662;SDS011;16578;53.266;7.920;2023-04-24T14:16:10;9.18;;;4.07;;
29662;SDS011;16578;53.266;7.920;2023-04-24T14:18:36;9.85;;;4.15;;
29662;SDS011;16578;53.266;7.920;2023-04-24T14:21:04;6.72;;;3.05;;
29662;SDS011;16578;53.266;7.920;2023-04-24T14:25:56;6.82;;;2.40;;
29662;SDS011;16578;53.266;7.920;2023-04-24T14:28:22;7.05;;;2.75;;
29662;SDS011;16578;53.266;7.920;2023-04-24T14:30:48;8.80;;;2.67;;
29662;SDS011;16578;53.266;7.920;2023-04-24T14:33:14;6.80;;;2.83;;
29662;SDS011;16578;53.266;7.920;2023-04-24T14:35:40;6.47;;;2.60;;
29662;SDS011;16578;53.266;7.920;2023-04-24T14:38:09;6.43;;;3.33;;
29662;SDS011;16578;53.266;7.920;2023-04-24T14:40:35;8.85;;;3.80;;
29662;SDS011;16578;53.266;7.920;2023-04-24T14:43:01;6.47;;;3.17;;
29662;SDS011;16578;53.266;7.920;2023-04-24T14:45:27;5.28;;;2.80;;
29662;SDS011;16578;53.266;7.920;2023-04-24T14:47:53;4.72;;;2.22;;
29662;SDS011;16578;53.266;7.920;2023-04-24T14:50:19;6.40;;;2.25;;
29662;SDS011;16578;53.266;7.920;2023-04-24T14:52:45;6.75;;;2.35;;
29662;SDS011;16578;53.266;7.920;2023-04-24T14:55:11;6.10;;;2.17;;
29662;SDS011;16578;53.266;7.920;2023-04-24T14:57:37;5.13;;;1.77;;
29662;SDS011;16578;53.266;7.920;2023-04-24T15:00:03;2.90;;;2.20;;
29662;SDS011;16578;53.266;7.920;2023-04-24T15:02:35;4.38;;;2.10;;
29662;SDS011;16578;53.266;7.920;2023-04-24T15:05:04;4.88;;;1.70;;
29662;SDS011;16578;53.266;7.920;2023-04-24T15:07:31;2.53;;;1.38;;